CheckWX is a tool to help pilots better visualize weather data.  It is not intended as a substitute for an official pre-flight weather briefing.

20:47:00 UTC

FVFA METAR
Victoria Falls International Airport
Victoria Falls, Zimbabwe
Current

7 hours ago

FVFA 281400Z 13005KT 110V170 9999 FEW045CB SCT100 30/18 Q1015 TEMPO TS
Observed
Jan-28 @ 14:00 UTC
Wind
  • 130° at 5 KTS
Visibility
10,000+ meters
Flight Rules
VFR
Cloud Levels
  • Few at 4,500' AGL
  • Scattered at 10,000' AGL
Temperature
30°C / 86°F
Dewpoint
18°C / 64°F
Heat Index
31°C / 88°F
Humidity
49%
Altimeter
29.97" Hg
Pressure
1014.92 hPa
Previous

11 hours ago

FVFA 281000Z VRB03KT 9999 SCT027TCU 27/21 Q1019 TEMPO -SHRA
Observed
Jan-28 @ 10:00 UTC
Wind
  • Variable at 3 KTS
Visibility
10,000+ meters
Flight Rules
VFR
Cloud Levels
  • Scattered at 2,700' AGL
Temperature
27°C / 81°F
Dewpoint
21°C / 70°F
Heat Index
29°C / 85°F
Humidity
70%
Altimeter
30.09" Hg
Pressure
1018.92 hPa
Previous

14 hours ago

FVFA 280700Z 27004KT 240V310 9999 FEW010 BKN090 22/21 Q1019 BECMG SCT025
Observed
Jan-28 @ 07:00 UTC
Wind
  • 270° at 4 KTS
Visibility
10,000+ meters
Flight Rules
VFR
Cloud Levels
  • Few at 1,000' AGL
  • Broken at 9,000' AGL
Temperature
22°C / 72°F
Dewpoint
21°C / 70°F
Humidity
94%
Altimeter
30.09" Hg
Pressure
1018.92 hPa